Flight Track Log - Related Links

Times and Time Zones

All times are in EDT time to prevent confusion due to time zone crossing. See the KAP29 flight status page for this flight to view local times or setup timezone preferences in your user account.

Time Position Orientation Groundspeed Altitude Reporting Facility
EDT Latitude Longitude Course Direction KTS MPH feet Rate Location/Type
Sat 03:42:27 PM 44.2914 -74.2092 109° East 150 173 8,100  Level Boston Center
Sat 03:43:27 PM 44.2861 -74.1511 97° East 145 167 8,700 450 Climbing Boston Center
Sat 03:44:27 PM 44.2706 -74.0753 106° East 157 181 9,000 150 Climbing Boston Center
Sat 03:45:27 PM 44.2547 -74.0081 108° East 170 196 9,000  Level Boston Center
Sat 03:46:27 PM 44.2264 -73.9467 123° Southeast 181 208 9,000  Level Boston Center
Sat 03:47:00 PM 44.2770 -73.9748 109° East  Level FlightAware Approximate
Sat 03:47:27 PM 44.2022 -73.8764 116° Southeast 187 215 9,000  Level Boston Center
Sat 03:48:27 PM 44.1781 -73.8181 120° Southeast 192 221 9,100 50 Climbing Boston Center
Sat 03:49:27 PM 44.1517 -73.7508 119° Southeast 192 221 9,100  Level Boston Center
Sat 03:50:27 PM 44.1233 -73.6867 122° Southeast 192 221 9,100 250 Level Boston Center
Sat 03:51:27 PM 44.0989 -73.6225 118° Southeast 192 221 9,600 450 Climbing Boston Center
Sat 03:52:27 PM 44.0706 -73.5583 122° Southeast 182 209 10,000 250 Climbing Boston Center
Sat 03:53:27 PM 44.0481 -73.4972 117° Southeast 205 236 10,100 250 Climbing Boston Center
Sat 03:54:27 PM 44.0175 -73.4275 121° Southeast 199 229 10,500 350 Climbing Boston Center
Sat 03:55:27 PM 43.9908 -73.3636 120° Southeast 199 229 10,800 250 Climbing Boston Center
Sat 03:56:27 PM 43.9644 -73.2967 119° Southeast 194 223 11,000 100 Climbing Boston Center
Sat 03:57:27 PM 43.9336 -73.2300 123° Southeast 194 223 11,000 50 Level Boston Center
Sat 03:58:27 PM 43.9069 -73.1606 118° Southeast 194 223 11,100  Climbing Boston Center
Sat 03:59:27 PM 43.8781 -73.0939 121° Southeast 194 223 11,000  Descending Boston Center
Sat 04:00:27 PM 43.8514 -73.0275 119° Southeast 199 229 11,100  Climbing Boston Center
Sat 04:01:27 PM 43.8225 -72.9639 122° Southeast 199 229 11,000 -50 Descending Boston Center
Sat 04:02:27 PM 43.7958 -72.9003 120° Southeast 194 223 11,000 50 Level Boston Center
Sat 04:03:27 PM 43.7731 -72.8397 117° Southeast 189 217 11,100  Climbing Boston Center
Sat 04:04:27 PM 43.7442 -72.7764 122° Southeast 189 217 11,000 -50 Descending Boston Center
Sat 04:05:27 PM 43.7150 -72.7131 122° Southeast 189 217 11,000  Level Boston Center
Sat 04:06:27 PM 43.6881 -72.6469 119° Southeast 189 217 11,000  Level Boston Center
Sat 04:07:27 PM 43.6633 -72.5836 118° Southeast 189 217 11,000 50 Level Boston Center
Sat 04:08:27 PM 43.6361 -72.5203 121° Southeast 189 217 11,100  Climbing Boston Center
Sat 04:09:27 PM 43.6092 -72.4572 121° Southeast 189 217 11,000 -50 Descending Boston Center
Sat 04:10:27 PM 43.5819 -72.3942 121° Southeast 189 217 11,000 50 Level Boston Center
Sat 04:11:27 PM 43.5528 -72.3311 123° Southeast 189 217 11,100 50 Climbing Boston Center
Sat 04:12:27 PM 43.5278 -72.2683 119° Southeast 189 217 11,100 -50 Level Boston Center
Sat 04:13:27 PM 43.4983 -72.2053 123° Southeast 189 217 11,000 -50 Descending Boston Center
Sat 04:14:27 PM 43.4733 -72.1397 118° Southeast 189 217 11,000  Level Boston Center
Sat 04:15:27 PM 43.4356 -72.0883 135° Southeast 194 223 11,000  Level Boston Center
Sat 04:16:39 PM 43.3917 -72.0314 137° Southeast 194 223 11,000 45 Level Boston Center
Sat 04:17:39 PM 43.3478 -71.9689 134° Southeast 189 217 11,100  Climbing Boston Center
Sat 04:18:39 PM 43.3161 -71.9178 130° Southeast 194 223 11,000 -50 Descending Boston Center
Sat 04:19:39 PM 43.2742 -71.8583 134° Southeast 194 223 11,000 -150 Level Boston Center
Sat 04:20:39 PM 43.2386 -71.8103 135° Southeast 199 229 10,700 -350 Descending Boston Center
Sat 04:21:39 PM 43.1944 -71.7453 133° Southeast 204 235 10,300 -400 Descending Boston Center
Sat 04:22:39 PM 43.1586 -71.6944 134° Southeast 204 235 9,900 -400 Descending Boston Center
Sat 04:23:39 PM 43.1144 -71.6294 133° Southeast 204 235 9,500 -361 Descending Boston Center
Sat 04:24:02 PM 43.1000 -71.6000 124° Southeast 208 239 9,400 -286 Descending KA90
Sat 04:25:03 PM 43.0667 -71.5500 132° Southeast 201 231 9,100 -198 Descending KA90
Sat 04:26:03 PM 43.0167 -71.5000 144° Southeast 193 222 9,000 -350 Descending KA90
Sat 04:27:03 PM 42.9833 -71.4500 132° Southeast 186 214 8,400 -564 Descending KA90
Sat 04:29:00 PM 42.9610 -71.3269 104° East  Level FlightAware Approximate
Sat 04:29:57 PM 42.8833 -71.3167 104° East 176 203 6,800  Level KA90
Sat 04:30:57 PM 42.8333 -71.3000 166° South 176 203 6,200 -233 Descending KA90
Sat 04:32:00 PM 42.8250 -71.2328 100° East  Level FlightAware Approximate
Sat 04:32:57 PM 42.7500 -71.2333 100° East 169 194 6,100  Level KA90
Sat 04:33:57 PM 42.7000 -71.2000 154° Southeast 173 199 5,900 -350 Descending KA90
Sat 04:34:57 PM 42.6667 -71.1667 144° Southeast 183 211 5,400 -476 Descending KA90
Sat 04:36:03 PM 42.6167 -71.1167 144° Southeast 188 216 4,900 -429 Descending KA90
Sat 04:37:03 PM 42.6000 -71.0500 109° East 185 213 4,500 -400 Descending KA90
Sat 04:38:03 PM 42.5667 -71.0000 132° Southeast 189 217 4,100 -250 Descending KA90
Sat 04:39:03 PM 42.5333 -70.9333 124° Southeast 182 209 4,000 -400 Descending KA90
Sat 04:40:03 PM 42.5000 -70.8833 132° Southeast 190 219 3,300 -600 Descending KA90
Sat 04:41:03 PM 42.4500 -70.8500 154° Southeast 186 214 2,800 -500 Descending KA90
Sat 04:42:03 PM 42.4167 -70.8667 200° South 169 194 2,300 -550 Descending KA90
Sat 04:43:03 PM 42.3833 -70.9000 216° Southwest 163 188 1,700 -789 Descending KA90
Sat 04:43:57 PM 42.3667 -70.9500 246° West 144 166 800 -1,000 Descending KA90
Sat 04:45:00 PM 42.3500 -71.0000 172° South  Level FlightAware Approximate
Sat 04:52:00 PM 42.3630 -71.0064 172° South  Level Estimated
Sat 04:53:00 PM 42.3630 -71.0064 172° South  Level Estimated

Login

Don't have an account? Register now (free) for customized features, flight alerts, and more!